Time;durP1;ratioP1;P1;durP2;ratioP2;P2;SDS_P1;SDS_P2;PMS_P1;PMS_P2;Temp;Humidity;BMP_temperature;BMP_pressure;BME280_temperature;BME280_humidity;BME280_pressure;Samples;Min_cycle;Max_cycle;Signal;HPM_P1;HPM_P2
2023/12/06 00:01:23;;;;;;;;;11.33;9.33;;;;;8.49;82.44;101142.44;5060237;28;72305;-51
2023/12/06 00:03:48;;;;;;;;;10.33;8.00;;;;;8.49;82.14;101153.88;5059604;28;69622;-53
2023/12/06 00:06:14;;;;;;;;;10.67;10.67;;;;;8.48;82.31;101148.66;5060752;28;45365;-50
2023/12/06 00:08:39;;;;;;;;;12.00;10.33;;;;;8.48;82.40;101148.66;5060385;28;58858;-53
2023/12/06 00:11:05;;;;;;;;;11.00;7.00;;;;;8.48;82.15;101149.50;5059376;28;73298;-50
2023/12/06 00:13:30;;;;;;;;;8.33;8.00;;;;;8.47;82.56;101152.22;5060736;28;45357;-51
2023/12/06 00:15:55;;;;;;;;;9.33;8.33;;;;;8.48;82.67;101153.94;5060373;28;45462;-51
2023/12/06 00:18:21;;;;;;;;;9.33;9.33;;;;;8.47;82.54;101160.16;5059111;28;73065;-52
2023/12/06 00:20:46;;;;;;;;;10.67;9.00;;;;;8.46;82.08;101155.78;5060386;28;45343;-50
2023/12/06 00:23:11;;;;;;;;;8.00;7.00;;;;;8.43;82.46;101152.31;5059725;28;63970;-50
2023/12/06 00:25:37;;;;;;;;;8.33;7.33;;;;;8.43;82.34;101160.25;5059736;28;69452;-52
2023/12/06 00:28:02;;;;;;;;;8.33;7.00;;;;;8.43;82.61;101156.72;5059833;28;46483;-50
2023/12/06 00:30:27;;;;;;;;;8.00;6.33;;;;;8.45;82.95;101160.19;5059259;28;45363;-54
2023/12/06 00:32:53;;;;;;;;;6.33;6.33;;;;;8.47;82.56;101166.31;5058946;28;68305;-51
2023/12/06 00:35:18;;;;;;;;;9.67;8.00;;;;;8.48;82.66;101167.22;5048781;28;45226;-50
2023/12/06 00:37:44;;;;;;;;;10.33;7.00;;;;;8.47;82.21;101162.81;5047770;28;75409;-50
2023/12/06 00:40:09;;;;;;;;;12.00;7.00;;;;;8.48;82.37;101169.84;5047722;28;45240;-52
2023/12/06 00:42:35;;;;;;;;;8.33;7.00;;;;;8.47;82.46;101170.78;5049061;28;45423;-51
2023/12/06 00:45:00;;;;;;;;;12.33;9.00;;;;;8.48;82.36;101168.06;5044034;28;69552;-50
2023/12/06 00:47:25;;;;;;;;;7.67;7.67;;;;;8.47;82.14;101168.97;5048625;28;47123;-52
2023/12/06 00:49:51;;;;;;;;;7.67;7.33;;;;;8.46;82.26;101172.56;5043980;28;45335;-50
2023/12/06 00:52:16;;;;;;;;;30.00;25.00;;;;;8.45;82.23;101178.75;5048394;28;45405;-51
2023/12/06 00:54:41;;;;;;;;;12.33;12.33;;;;;8.43;82.58;101173.50;5044116;28;70360;-51
2023/12/06 00:57:07;;;;;;;;;10.33;10.00;;;;;8.45;82.41;101181.41;5048426;28;45249;-51
2023/12/06 00:59:32;;;;;;;;;13.00;9.33;;;;;8.44;82.52;101185.81;5045352;28;45449;-52
2023/12/06 01:01:57;;;;;;;;;8.00;7.67;;;;;8.43;82.02;101189.41;5047883;28;60889;-53
2023/12/06 01:04:23;;;;;;;;;10.67;8.00;;;;;8.41;82.19;101191.25;5046805;28;68416;-52
2023/12/06 01:06:48;;;;;;;;;10.67;9.00;;;;;8.41;82.44;101195.69;5042302;28;74545;-50
2023/12/06 01:09:13;;;;;;;;;7.00;7.00;;;;;8.41;82.47;101201.00;5044087;28;69775;-50
2023/12/06 01:11:38;;;;;;;;;7.00;7.00;;;;;8.42;82.74;101202.69;5042672;28;68203;-52
2023/12/06 01:14:04;;;;;;;;;12.00;9.67;;;;;8.40;82.26;101202.75;5025644;28;45427;-50
2023/12/06 01:16:29;;;;;;;;;8.67;8.67;;;;;8.39;82.41;101201.03;5039212;28;46258;-50
2023/12/06 01:18:54;;;;;;;;;7.00;6.67;;;;;8.38;82.34;101204.63;5038202;28;48428;-50
2023/12/06 01:21:20;;;;;;;;;7.67;5.67;;;;;8.37;82.37;101205.53;5029687;28;69301;-50
2023/12/06 01:23:45;;;;;;;;;8.33;8.33;;;;;8.36;82.42;101198.47;5020440;28;67568;-50
2023/12/06 01:26:10;;;;;;;;;8.67;6.67;;;;;8.33;82.48;101206.56;5038350;28;75469;-50
2023/12/06 01:28:36;;;;;;;;;4.00;4.00;;;;;8.30;82.15;101211.09;5038678;28;61388;-50
2023/12/06 01:31:01;;;;;;;;;6.00;6.00;;;;;8.25;82.22;101212.13;5032448;28;69625;-52
2023/12/06 01:33:26;;;;;;;;;8.67;7.67;;;;;8.22;82.14;101211.34;5038583;28;45416;-51
2023/12/06 01:35:52;;;;;;;;;7.33;7.00;;;;;8.16;82.47;101214.19;5057718;28;75505;-51
2023/12/06 01:38:17;;;;;;;;;7.67;6.00;;;;;8.12;82.57;101216.06;5058870;28;65354;-51
2023/12/06 01:40:43;;;;;;;;;7.67;6.00;;;;;8.07;82.59;101215.34;5059398;28;46543;-50
2023/12/06 01:43:09;;;;;;;;;8.67;6.00;;;;;8.05;82.80;101215.41;5059299;28;45162;-50
2023/12/06 01:45:34;;;;;;;;;6.33;5.33;;;;;8.03;82.80;101219.03;5084313;27;75523;-52
2023/12/06 01:48:00;;;;;;;;;10.00;8.00;;;;;8.01;82.85;101218.22;5055968;28;73269;-52
2023/12/06 01:50:27;;;;;;;;;5.67;5.67;;;;;7.99;83.20;101226.22;5057632;28;45572;-50
2023/12/06 01:52:57;;;;;;;;;9.33;7.67;;;;;7.94;83.16;101225.50;5087118;27;45642;-50
2023/12/06 01:55:22;;;;;;;;;8.33;8.33;;;;;7.89;83.03;101233.59;5054537;28;46154;-49
2023/12/06 01:57:48;;;;;;;;;5.67;5.67;;;;;7.85;83.20;101239.91;5057796;28;71974;-50
2023/12/06 02:00:15;;;;;;;;;12.33;6.33;;;;;7.82;83.79;101244.44;5080217;27;67833;-51
2023/12/06 02:02:40;;;;;;;;;6.67;6.67;;;;;7.82;84.07;101241.78;5059336;28;45388;-50
2023/12/06 02:05:06;;;;;;;;;9.00;7.67;;;;;7.84;83.92;101251.41;5056507;28;52893;-51
2023/12/06 02:07:32;;;;;;;;;9.33;8.00;;;;;7.88;84.06;101246.88;5088958;27;50292;-50
2023/12/06 02:09:58;;;;;;;;;10.33;7.33;;;;;7.90;84.04;101256.53;5057309;28;45438;-51
2023/12/06 02:12:23;;;;;;;;;6.00;6.00;;;;;7.93;83.78;101252.91;5056452;28;45327;-52
2023/12/06 02:14:48;;;;;;;;;8.67;7.67;;;;;7.96;84.00;101263.41;5090363;27;74469;-50
2023/12/06 02:17:14;;;;;;;;;7.67;7.67;;;;;7.98;83.75;101266.00;5058218;28;45501;-50
2023/12/06 02:19:40;;;;;;;;;8.67;7.67;;;;;8.00;83.62;101264.16;5083487;27;45377;-53
2023/12/06 02:22:06;;;;;;;;;7.00;7.00;;;;;8.00;83.51;101261.53;5056137;28;59679;-53
2023/12/06 02:24:33;;;;;;;;;9.33;7.00;;;;;8.00;83.47;101261.53;5065251;28;49441;-50
2023/12/06 02:26:58;;;;;;;;;8.33;8.00;;;;;7.99;83.44;101265.97;5058165;28;45531;-52
2023/12/06 02:29:24;;;;;;;;;10.33;8.00;;;;;8.00;83.47;101277.41;5092017;27;56008;-54
2023/12/06 02:31:49;;;;;;;;;11.00;8.00;;;;;7.99;83.11;101279.22;5059332;28;45589;-52
2023/12/06 02:34:17;;;;;;;;;9.33;9.33;;;;;7.95;83.06;101275.78;5063020;28;47551;-53
2023/12/06 02:36:47;;;;;;;;;8.00;8.00;;;;;7.95;82.94;101274.91;5057522;28;45532;-50
2023/12/06 02:39:12;;;;;;;;;7.67;6.00;;;;;7.94;83.14;101282.00;5091307;27;45444;-51
2023/12/06 02:41:37;;;;;;;;;9.33;7.00;;;;;7.94;83.09;101279.34;5057608;28;70609;-50
2023/12/06 02:44:03;;;;;;;;;11.00;11.00;;;;;7.95;83.26;101282.84;5056046;28;74584;-53
2023/12/06 02:46:28;;;;;;;;;13.33;8.00;;;;;7.95;83.38;101286.38;5054860;28;45606;-53
2023/12/06 02:48:54;;;;;;;;;9.67;7.67;;;;;7.97;83.24;101283.69;5057050;28;67850;-52
2023/12/06 02:51:22;;;;;;;;;12.67;9.33;;;;;7.99;83.12;101281.88;5091168;27;45496;-50
2023/12/06 02:53:48;;;;;;;;;9.00;7.67;;;;;8.00;83.33;101288.88;5057318;28;46400;-52
2023/12/06 02:56:14;;;;;;;;;14.67;10.67;;;;;8.00;83.04;101291.50;5058266;28;45376;-51
2023/12/06 02:58:39;;;;;;;;;4.33;4.33;;;;;8.01;83.07;101289.75;5058917;28;45672;-51
2023/12/06 03:01:04;;;;;;;;;13.00;10.67;;;;;8.00;83.28;101293.31;5057707;28;52511;-51
2023/12/06 03:03:30;;;;;;;;;6.00;6.00;;;;;8.02;82.94;101299.44;5073856;28;74531;-52
2023/12/06 03:05:55;;;;;;;;;8.00;8.00;;;;;8.02;83.13;101297.66;5061324;28;45445;-53
2023/12/06 03:08:20;;;;;;;;;11.67;11.67;;;;;8.02;82.94;101304.75;5062020;28;45272;-53
2023/12/06 03:10:45;;;;;;;;;8.00;8.00;;;;;8.01;82.96;101303.84;5061048;28;70628;-52
2023/12/06 03:13:11;;;;;;;;;9.33;8.67;;;;;8.01;83.09;101295.91;5060454;28;75452;-51
2023/12/06 03:15:36;;;;;;;;;13.00;10.33;;;;;8.00;82.76;101298.63;5060916;28;72075;-53
2023/12/06 03:18:01;;;;;;;;;13.00;12.00;;;;;7.99;82.61;101300.41;5060423;28;69337;-51
2023/12/06 03:20:27;;;;;;;;;9.00;8.00;;;;;7.98;82.85;101297.78;5061834;28;47775;-49
2023/12/06 03:22:52;;;;;;;;;13.33;12.00;;;;;7.97;82.80;101296.94;5060235;28;74309;-51
2023/12/06 03:25:17;;;;;;;;;10.00;9.00;;;;;7.96;82.51;101289.88;5062334;28;45370;-52
2023/12/06 03:27:43;;;;;;;;;16.67;14.33;;;;;7.96;82.76;101284.59;5059800;28;68348;-52
2023/12/06 03:30:09;;;;;;;;;12.33;11.67;;;;;7.95;82.49;101277.53;5061871;28;45433;-53
2023/12/06 03:32:34;;;;;;;;;14.33;11.67;;;;;7.93;82.67;101276.75;5061216;28;53993;-52
2023/12/06 03:35:00;;;;;;;;;13.00;11.00;;;;;7.93;82.72;101276.75;5059145;28;45457;-51
2023/12/06 03:37:25;;;;;;;;;11.67;8.00;;;;;7.93;82.50;101274.09;5060631;28;69455;-51
2023/12/06 03:39:50;;;;;;;;;16.00;10.33;;;;;7.91;82.18;101274.16;5060484;28;70491;-49
2023/12/06 03:42:15;;;;;;;;;10.33;9.67;;;;;7.87;82.45;101264.53;5060171;28;74566;-51
2023/12/06 03:44:41;;;;;;;;;7.00;5.33;;;;;7.83;82.52;101268.22;5060292;28;70938;-53
2023/12/06 03:47:06;;;;;;;;;7.00;7.00;;;;;7.80;82.46;101268.31;5060216;28;69409;-51
2023/12/06 03:49:31;;;;;;;;;6.00;6.00;;;;;7.75;82.17;101268.44;5061167;28;45220;-51
2023/12/06 03:51:57;;;;;;;;;14.67;11.00;;;;;7.74;82.18;101264.09;5059344;28;73363;-50
2023/12/06 03:54:22;;;;;;;;;8.33;7.00;;;;;7.73;82.35;101262.34;5060937;28;49703;-52
2023/12/06 03:56:48;;;;;;;;;14.00;9.33;;;;;7.71;82.06;101252.72;5060795;28;63924;-51
2023/12/06 03:59:14;;;;;;;;;10.67;6.00;;;;;7.69;82.02;101259.81;5064612;28;45491;-50
2023/12/06 04:01:44;;;;;;;;;7.00;6.00;;;;;7.67;82.04;101265.16;5060607;28;46327;-52
2023/12/06 04:04:09;;;;;;;;;12.00;7.00;;;;;7.64;82.08;101267.94;5060367;28;45253;-51
2023/12/06 04:06:34;;;;;;;;;7.33;6.33;;;;;7.63;82.05;101271.47;5060921;28;45386;-51
2023/12/06 04:09:00;;;;;;;;;8.67;5.67;;;;;7.62;82.15;101273.25;5059761;28;70396;-52
2023/12/06 04:11:25;;;;;;;;;9.33;7.00;;;;;7.62;81.97;101275.88;5059700;28;76072;-50
2023/12/06 04:13:51;;;;;;;;;7.33;6.67;;;;;7.62;82.11;101275.03;5059715;28;72183;-48
2023/12/06 04:16:17;;;;;;;;;8.00;7.00;;;;;7.61;82.08;101275.94;5060149;28;45228;-51
2023/12/06 04:18:42;;;;;;;;;11.00;7.00;;;;;7.62;82.10;101281.19;5060731;28;45394;-51
2023/12/06 04:21:07;;;;;;;;;7.67;7.33;;;;;7.64;81.97;101283.81;5059096;28;75375;-53
2023/12/06 04:23:33;;;;;;;;;8.67;8.00;;;;;7.65;82.04;101284.66;5059657;28;45304;-53
2023/12/06 04:25:58;;;;;;;;;11.00;6.67;;;;;7.64;81.84;101278.50;5059589;28;67441;-50
2023/12/06 04:28:23;;;;;;;;;5.00;5.00;;;;;7.66;81.80;101275.81;5059774;28;70496;-49
2023/12/06 04:30:49;;;;;;;;;7.67;7.67;;;;;7.63;81.56;101282.06;5059591;28;74565;-49
2023/12/06 04:33:14;;;;;;;;;8.33;6.67;;;;;7.62;81.53;101275.03;5058805;28;72884;-51
2023/12/06 04:35:39;;;;;;;;;5.33;5.33;;;;;7.59;81.42;101281.28;5059856;28;67933;-50
2023/12/06 04:38:04;;;;;;;;;6.33;5.00;;;;;7.59;81.62;101283.94;5059304;28;69754;-49
2023/12/06 04:40:30;;;;;;;;;7.67;5.67;;;;;7.58;81.42;101292.78;5059301;28;75576;-50
2023/12/06 04:42:55;;;;;;;;;6.67;6.67;;;;;7.57;81.69;101292.84;5059148;28;73459;-50
2023/12/06 04:45:20;;;;;;;;;5.33;5.33;;;;;7.56;81.59;101297.28;5059208;28;68062;-51
2023/12/06 04:47:46;;;;;;;;;6.67;5.00;;;;;7.55;81.71;101290.25;5059640;28;70201;-50
2023/12/06 04:50:11;;;;;;;;;7.67;7.00;;;;;7.54;81.62;101292.94;5059487;28;46336;-49
2023/12/06 04:52:36;;;;;;;;;7.00;6.00;;;;;7.51;81.72;101293.91;5059398;28;73307;-50
2023/12/06 04:55:05;;;;;;;;;7.67;6.67;;;;;7.49;81.41;101302.78;5060045;28;45509;-53
2023/12/06 04:57:30;;;;;;;;;7.00;7.00;;;;;7.42;81.53;101305.59;5060599;28;45306;-51
2023/12/06 04:59:56;;;;;;;;;6.33;6.33;;;;;7.38;81.42;101313.66;5059655;28;45948;-50
2023/12/06 05:02:21;;;;;;;;;10.67;5.00;;;;;7.33;81.49;101316.47;5058877;28;45241;-51
2023/12/06 05:04:47;;;;;;;;;5.33;4.00;;;;;7.32;81.96;101320.00;5060242;28;45279;-49
2023/12/06 05:07:12;;;;;;;;;7.33;5.00;;;;;7.32;81.99;101320.00;5058520;28;70052;-49
2023/12/06 05:09:38;;;;;;;;;7.33;5.33;;;;;7.32;82.01;101327.94;5057421;28;66461;-50
2023/12/06 05:12:03;;;;;;;;;7.00;6.00;;;;;7.32;82.03;101330.59;5065893;28;45478;-49
2023/12/06 05:14:29;;;;;;;;;6.33;6.00;;;;;7.32;81.83;101320.00;5060147;28;45362;-50
2023/12/06 05:16:54;;;;;;;;;7.00;6.00;;;;;7.31;81.93;101328.84;5058361;28;45517;-51
2023/12/06 05:19:19;;;;;;;;;5.33;5.33;;;;;7.26;82.00;101325.47;5059110;28;61780;-52
2023/12/06 05:21:44;;;;;;;;;9.00;7.33;;;;;7.26;82.16;101330.75;5058735;28;72179;-51
2023/12/06 05:24:10;;;;;;;;;5.67;5.67;;;;;7.26;82.22;101326.34;5058715;28;63829;-52
2023/12/06 05:26:35;;;;;;;;;7.00;7.00;;;;;7.28;81.98;101339.53;5059645;28;45303;-50
2023/12/06 05:29:01;;;;;;;;;7.67;4.67;;;;;7.29;82.10;101341.28;5058626;28;52421;-50
2023/12/06 05:31:26;;;;;;;;;6.67;6.67;;;;;7.30;81.99;101345.66;5092476;27;45443;-51
2023/12/06 05:33:52;;;;;;;;;7.00;6.00;;;;;7.33;81.99;101358.81;5088827;27;45700;-51
2023/12/06 05:36:17;;;;;;;;;7.00;7.00;;;;;7.35;82.07;101351.66;5058915;28;69429;-50
2023/12/06 05:38:42;;;;;;;;;5.33;5.33;;;;;7.37;81.89;101349.88;5059404;28;45465;-51
2023/12/06 05:41:08;;;;;;;;;6.33;6.33;;;;;7.38;81.93;101348.97;5058556;28;73245;-50
2023/12/06 05:43:33;;;;;;;;;4.33;4.33;;;;;7.36;81.57;101363.16;5059490;28;45489;-49
2023/12/06 05:45:59;;;;;;;;;5.00;5.00;;;;;7.33;81.60;101360.59;5058904;28;51502;-50
2023/12/06 05:48:24;;;;;;;;;8.33;6.00;;;;;7.31;81.55;101363.25;5057840;28;75190;-51
2023/12/06 05:50:49;;;;;;;;;7.67;6.00;;;;;7.31;81.72;101360.63;5058626;28;69532;-51
2023/12/06 05:53:14;;;;;;;;;8.33;4.67;;;;;7.32;81.92;101356.22;5058101;28;68313;-50
2023/12/06 05:55:40;;;;;;;;;4.67;4.00;;;;;7.32;81.78;101361.50;5059904;28;67557;-51
2023/12/06 05:58:05;;;;;;;;;6.67;6.33;;;;;7.32;81.84;101370.28;5056579;28;75811;-51
2023/12/06 06:00:31;;;;;;;;;5.33;5.33;;;;;7.33;81.69;101373.84;5060238;28;62608;-51
2023/12/06 06:02:58;;;;;;;;;9.00;6.33;;;;;7.32;81.58;101377.38;5061527;28;45330;-52
2023/12/06 06:05:23;;;;;;;;;6.00;6.00;;;;;7.29;81.73;101370.38;5056518;28;45602;-52
2023/12/06 06:07:49;;;;;;;;;5.00;5.00;;;;;7.29;81.77;101375.69;5060089;28;51007;-50
2023/12/06 06:10:14;;;;;;;;;10.00;7.67;;;;;7.31;81.78;101380.94;5067633;28;74478;-51
2023/12/06 06:12:39;;;;;;;;;5.67;4.33;;;;;7.32;81.96;101378.22;5056125;27;68284;-50
2023/12/06 06:15:05;;;;;;;;;12.00;7.00;;;;;7.34;81.71;101379.06;5064878;28;70114;-52
2023/12/06 06:17:31;;;;;;;;;11.00;8.00;;;;;7.35;81.80;101374.63;5064937;28;47055;-49
2023/12/06 06:19:56;;;;;;;;;11.33;6.67;;;;;7.33;81.83;101374.69;5060813;28;45716;-51
2023/12/06 06:22:21;;;;;;;;;10.33;7.33;;;;;7.33;81.92;101385.28;5064843;28;69710;-49
2023/12/06 06:24:46;;;;;;;;;10.67;9.00;;;;;7.33;81.94;101389.72;5061869;28;54221;-51
2023/12/06 06:27:12;;;;;;;;;10.33;7.00;;;;;7.31;81.87;101386.22;5057372;28;75950;-49
2023/12/06 06:29:37;;;;;;;;;9.33;7.00;;;;;7.28;81.98;101384.53;5061574;28;45596;-51
2023/12/06 06:32:03;;;;;;;;;5.33;4.33;;;;;7.26;81.92;101387.22;5059992;28;45417;-49
2023/12/06 06:34:29;;;;;;;;;9.67;6.00;;;;;7.26;82.01;101383.69;5059086;28;47123;-52
2023/12/06 06:36:54;;;;;;;;;6.33;6.33;;;;;7.24;82.24;101396.09;5057657;28;46386;-48
2023/12/06 06:39:20;;;;;;;;;6.00;6.00;;;;;7.19;82.09;101396.22;5052459;28;45715;-49
2023/12/06 06:41:46;;;;;;;;;5.00;5.00;;;;;7.15;82.02;101402.50;5056292;28;45505;-46
2023/12/06 06:44:11;;;;;;;;;8.33;7.00;;;;;7.09;82.11;101402.66;5056566;28;45533;-50
2023/12/06 06:46:37;;;;;;;;;6.00;6.00;;;;;7.04;82.35;101408.09;5054513;28;53503;-49
2023/12/06 06:49:02;;;;;;;;;7.00;5.67;;;;;6.97;82.40;101414.41;5060432;28;63837;-50
2023/12/06 06:51:35;;;;;;;;;6.33;6.00;;;;;6.93;82.70;101418.91;5077154;27;45471;-48
2023/12/06 06:54:01;;;;;;;;;5.67;5.67;;;;;6.88;82.66;101418.19;5060869;28;45613;-51
2023/12/06 06:56:27;;;;;;;;;7.33;6.67;;;;;6.85;83.00;101420.03;5061142;28;46939;-50
2023/12/06 06:58:52;;;;;;;;;10.33;8.00;;;;;6.82;82.91;101420.09;5055860;28;45441;-51
2023/12/06 07:01:18;;;;;;;;;7.00;7.00;;;;;6.79;83.25;101424.56;5063543;28;45559;-50
2023/12/06 07:03:44;;;;;;;;;7.33;7.33;;;;;6.77;83.27;101429.00;5060968;28;45946;-48
2023/12/06 07:06:09;;;;;;;;;11.00;7.33;;;;;6.74;82.96;101429.09;5056077;28;48784;-49
2023/12/06 07:08:35;;;;;;;;;10.67;7.67;;;;;6.71;83.16;101423.84;5053326;28;45408;-51
2023/12/06 07:11:01;;;;;;;;;17.00;12.33;;;;;6.68;83.34;101431.88;5056336;28;45496;-53
2023/12/06 07:13:26;;;;;;;;;8.33;8.33;;;;;6.67;83.57;101437.19;5053336;28;45470;-51
2023/12/06 07:15:52;;;;;;;;;8.00;6.33;;;;;6.64;83.71;101438.16;5056723;28;46170;-53
2023/12/06 07:18:18;;;;;;;;;12.67;12.00;;;;;6.62;83.96;101445.22;5050614;28;47234;-52
2023/12/06 07:20:44;;;;;;;;;11.33;8.33;;;;;6.61;83.71;101452.31;5055307;28;45403;-53
2023/12/06 07:23:09;;;;;;;;;13.67;10.67;;;;;6.59;83.95;101462.03;5054956;28;45640;-50
2023/12/06 07:25:35;;;;;;;;;7.00;6.67;;;;;6.57;83.88;101455.91;5055975;28;49870;-53
2023/12/06 07:28:02;;;;;;;;;9.33;7.67;;;;;6.56;84.21;101464.75;5056719;28;49223;-53
2023/12/06 07:30:27;;;;;;;;;13.00;9.33;;;;;6.56;83.94;101466.53;5057366;28;45287;-53
2023/12/06 07:32:53;;;;;;;;;7.33;7.33;;;;;6.56;84.02;101471.81;5055047;28;45641;-55
2023/12/06 07:35:18;;;;;;;;;8.00;8.00;;;;;6.56;84.13;101477.13;5057568;28;46443;-49
2023/12/06 07:37:43;;;;;;;;;11.00;11.00;;;;;6.55;84.43;101475.38;5057131;28;68585;-50
2023/12/06 07:40:11;;;;;;;;;7.67;7.67;;;;;6.54;84.62;101473.63;5056625;28;69295;-53
2023/12/06 07:42:36;;;;;;;;;7.00;7.00;;;;;6.55;84.45;101470.09;5057980;28;45423;-49
2023/12/06 07:45:01;;;;;;;;;8.33;8.00;;;;;6.55;84.44;101472.72;5057072;28;46146;-49
2023/12/06 07:47:28;;;;;;;;;9.33;5.00;;;;;6.55;84.31;101475.38;5050522;28;73106;-49
2023/12/06 07:49:54;;;;;;;;;11.33;8.00;;;;;6.55;84.64;101485.94;5051693;28;45492;-49
2023/12/06 07:52:19;;;;;;;;;7.67;7.67;;;;;6.56;84.56;101479.75;5060231;28;69422;-50
2023/12/06 07:54:46;;;;;;;;;9.33;9.33;;;;;6.57;84.52;101476.19;5060279;28;75587;-52
2023/12/06 07:57:12;;;;;;;;;10.67;9.33;;;;;6.57;84.68;101476.19;5060865;28;45400;-49
2023/12/06 07:59:38;;;;;;;;;9.67;8.33;;;;;6.59;84.45;101479.69;5061095;28;45273;-49
2023/12/06 08:02:03;;;;;;;;;13.33;10.67;;;;;6.59;84.31;101480.53;5060840;28;45567;-52
2023/12/06 08:04:29;;;;;;;;;14.00;8.67;;;;;6.62;84.33;101490.16;5058351;28;45360;-50
2023/12/06 08:06:55;;;;;;;;;10.00;9.67;;;;;6.62;84.42;101493.69;5060145;28;45453;-50
2023/12/06 08:09:20;;;;;;;;;12.33;11.00;;;;;6.65;84.45;101492.75;5060907;28;45540;-50
2023/12/06 08:11:46;;;;;;;;;11.33;11.33;;;;;6.67;84.54;101495.38;5060897;28;45559;-49
2023/12/06 08:14:13;;;;;;;;;16.00;13.67;;;;;6.69;84.38;101494.44;5060186;28;46909;-50
2023/12/06 08:16:39;;;;;;;;;10.00;10.00;;;;;6.71;84.13;101495.25;5060499;28;45662;-49
2023/12/06 08:19:04;;;;;;;;;10.67;9.00;;;;;6.71;84.06;101503.19;5060630;28;45395;-50
2023/12/06 08:21:29;;;;;;;;;12.67;9.67;;;;;6.74;84.04;101507.53;5060281;28;69035;-49
2023/12/06 08:23:55;;;;;;;;;8.00;8.00;;;;;6.75;83.92;101510.16;5060920;28;45326;-50
2023/12/06 08:26:20;;;;;;;;;10.33;9.00;;;;;6.77;84.12;101510.97;5059820;28;73091;-48
2023/12/06 08:28:45;;;;;;;;;11.00;10.33;;;;;6.79;84.13;101506.53;5059586;28;68093;-50
2023/12/06 08:31:12;;;;;;;;;13.00;11.33;;;;;6.83;83.96;101517.91;5060339;28;46095;-49
2023/12/06 08:33:37;;;;;;;;;12.67;10.33;;;;;6.86;83.65;101530.19;5060114;28;46037;-50
2023/12/06 08:36:02;;;;;;;;;11.00;10.00;;;;;6.87;83.65;101527.50;5059399;28;61006;-49
2023/12/06 08:38:28;;;;;;;;;12.00;11.00;;;;;6.89;83.77;101522.19;5060128;28;45551;-50
2023/12/06 08:40:54;;;;;;;;;15.67;14.33;;;;;6.89;83.68;101511.59;5060105;28;45473;-49
2023/12/06 08:43:19;;;;;;;;;14.67;9.00;;;;;6.91;83.52;101521.25;5059139;28;75539;-49
2023/12/06 08:45:44;;;;;;;;;13.67;11.67;;;;;6.95;83.28;101516.75;5059211;28;45482;-49
2023/12/06 08:48:10;;;;;;;;;11.67;10.33;;;;;6.97;83.22;101522.88;5058649;28;69242;-51
2023/12/06 08:50:35;;;;;;;;;12.33;9.67;;;;;7.00;83.41;101524.56;5060891;28;45375;-49
2023/12/06 08:53:01;;;;;;;;;13.33;12.67;;;;;7.01;83.17;101526.31;5060132;28;46442;-48
2023/12/06 08:55:26;;;;;;;;;12.00;10.00;;;;;7.03;83.14;101525.38;5060266;28;45288;-50
2023/12/06 08:57:52;;;;;;;;;13.33;12.00;;;;;7.04;82.96;101524.47;5058105;28;57538;-48
2023/12/06 09:00:17;;;;;;;;;13.00;11.67;;;;;7.06;83.00;101521.78;5057854;28;68131;-49
2023/12/06 09:02:42;;;;;;;;;13.67;11.00;;;;;7.06;82.86;101516.50;5059522;28;46023;-49
2023/12/06 09:05:11;;;;;;;;;14.00;12.00;;;;;7.09;82.80;101517.31;5058541;28;45447;-50
2023/12/06 09:07:39;;;;;;;;;10.67;10.67;;;;;7.10;82.81;101516.41;5087512;27;45275;-52
2023/12/06 09:10:05;;;;;;;;;13.33;12.33;;;;;7.14;82.87;101514.53;5059568;28;45417;-52
2023/12/06 09:12:31;;;;;;;;;12.00;11.33;;;;;7.16;82.63;101518.03;5059865;28;46159;-49
2023/12/06 09:14:56;;;;;;;;;14.00;11.67;;;;;7.18;82.52;101523.28;5059194;28;45442;-49
2023/12/06 09:17:21;;;;;;;;;12.67;10.67;;;;;7.20;82.47;101517.03;5059522;28;45299;-53
2023/12/06 09:19:48;;;;;;;;;11.00;10.00;;;;;7.22;82.37;101519.63;5058671;28;70449;-50
2023/12/06 09:22:15;;;;;;;;;12.67;11.00;;;;;7.24;82.50;101518.69;5059661;28;45367;-51
2023/12/06 09:24:42;;;;;;;;;11.00;11.00;;;;;7.27;82.22;101525.69;5059507;28;45251;-51
2023/12/06 09:27:07;;;;;;;;;9.33;9.33;;;;;7.28;81.89;101524.78;5059494;28;45324;-50
2023/12/06 09:29:33;;;;;;;;;10.00;8.67;;;;;7.30;81.89;101530.94;5059510;28;45559;-49
2023/12/06 09:31:58;;;;;;;;;9.67;9.67;;;;;7.30;81.86;101536.22;5059392;28;47130;-51
2023/12/06 09:34:24;;;;;;;;;17.00;11.33;;;;;7.33;81.88;101532.63;5058060;28;71122;-51
2023/12/06 09:36:50;;;;;;;;;9.67;9.67;;;;;7.36;81.56;101528.09;5060067;28;45591;-52
2023/12/06 09:39:15;;;;;;;;;12.67;10.33;;;;;7.40;81.46;101531.53;5057896;28;45466;-51
2023/12/06 09:41:42;;;;;;;;;10.67;8.33;;;;;7.43;81.78;101535.00;5059174;28;50926;-50
2023/12/06 09:44:07;;;;;;;;;12.00;11.00;;;;;7.79;82.05;101542.00;5058625;28;45500;-50
2023/12/06 09:46:33;;;;;;;;;12.00;10.33;;;;;8.87;82.86;101541.59;5058610;28;69046;-49
2023/12/06 09:48:58;;;;;;;;;14.33;13.00;;;;;10.10;78.24;101536.63;5058582;28;45272;-50
2023/12/06 09:51:24;;;;;;;;;16.00;15.00;;;;;11.23;76.57;101536.78;5058701;28;68897;-52
2023/12/06 09:53:50;;;;;;;;;12.00;12.00;;;;;12.26;73.14;101543.97;5059180;28;45417;-52
2023/12/06 09:56:17;;;;;;;;;19.67;15.00;;;;;13.16;71.67;101536.13;5059013;28;45628;-49
2023/12/06 09:58:43;;;;;;;;;17.00;15.33;;;;;13.96;69.70;101535.72;5059448;28;45441;-52
2023/12/06 10:01:09;;;;;;;;;20.33;17.33;;;;;14.63;69.44;101543.75;5058280;28;45583;-52
2023/12/06 10:03:34;;;;;;;;;20.67;18.67;;;;;15.19;67.90;101541.53;5091319;27;45378;-52
2023/12/06 10:06:03;;;;;;;;;21.33;18.33;;;;;15.58;65.72;101541.94;5056677;28;58816;-52
2023/12/06 10:08:29;;;;;;;;;17.33;13.67;;;;;15.90;65.89;101549.91;5058997;28;45377;-51
2023/12/06 10:11:05;;;;;;;;;14.67;13.00;;;;;16.13;59.30;101552.06;5090974;27;50439;-51
2023/12/06 10:13:34;;;;;;;;;14.33;14.00;;;;;16.31;59.30;101547.38;5057751;28;45304;-50
2023/12/06 10:16:00;;;;;;;;;17.00;13.00;;;;;16.48;59.70;101550.84;5058584;28;45439;-54
2023/12/06 10:18:26;;;;;;;;;17.00;13.00;;;;;16.61;58.52;101556.25;5056893;28;45372;-50
2023/12/06 10:20:51;;;;;;;;;19.33;16.33;;;;;16.68;56.90;101557.59;5091758;27;46513;-52
2023/12/06 10:23:16;;;;;;;;;11.00;10.00;;;;;16.81;60.41;101555.84;5058966;28;45369;-54
2023/12/06 10:25:43;;;;;;;;;13.33;11.67;;;;;16.93;55.49;101556.91;5059054;28;68107;-54
2023/12/06 10:28:11;;;;;;;;;17.00;14.00;;;;;17.00;54.86;101547.50;5055291;27;45375;-53
2023/12/06 10:30:36;;;;;;;;;15.33;15.00;;;;;17.02;55.44;101548.25;5073825;28;48092;-53
2023/12/06 10:33:02;;;;;;;;;15.33;14.67;;;;;17.09;56.64;101551.41;5055021;28;72040;-53
2023/12/06 10:35:28;;;;;;;;;16.00;13.00;;;;;17.03;53.46;101549.97;5038179;28;45427;-56
2023/12/06 10:37:55;;;;;;;;;13.33;11.67;;;;;17.04;53.73;101542.78;5056922;28;69404;-55
2023/12/06 10:40:23;;;;;;;;;17.67;16.00;;;;;17.02;54.23;101542.88;5037247;28;47311;-53
2023/12/06 10:42:52;;;;;;;;;18.67;15.33;;;;;17.09;55.84;101540.66;5040237;28;45355;-55
2023/12/06 10:45:18;;;;;;;;;13.50;12.00;;;;;17.08;53.14;101540.75;5058137;28;45331;-54
2023/12/06 10:47:44;;;;;;;;;19.00;16.33;;;;;17.12;49.75;101547.66;5039176;28;45456;-55
2023/12/06 10:50:11;;;;;;;;;13.00;13.00;;;;;17.16;53.32;101546.50;5039082;28;75630;-54
2023/12/06 10:52:36;;;;;;;;;18.00;16.33;;;;;17.20;48.40;101543.47;5053289;28;46048;-54
2023/12/06 10:55:03;;;;;;;;;18.00;16.33;;;;;17.20;51.48;101548.84;5039701;28;45354;-55
2023/12/06 10:57:30;;;;;;;;;18.00;14.67;;;;;17.23;52.35;101546.94;5044190;28;45457;-58
2023/12/06 10:59:57;;;;;;;;;18.33;15.33;;;;;17.24;51.81;101544.16;5049349;28;46287;-53
2023/12/06 11:02:23;;;;;;;;;15.33;15.33;;;;;17.28;49.44;101534.06;5037094;28;45476;-55
2023/12/06 11:04:52;;;;;;;;;20.33;17.67;;;;;17.23;52.13;101537.03;5051600;28;69104;-55
2023/12/06 11:07:42;;;;;;;;;18.00;17.00;;;;;17.24;50.74;101535.22;5023170;28;45309;-54
2023/12/06 11:10:33;;;;;;;;;14.33;14.33;;;;;17.27;51.79;101532.34;5049031;28;46367;-54
2023/12/06 11:13:05;;;;;;;;;20.67;19.33;;;;;17.28;50.76;101539.44;5052299;28;45348;-54
2023/12/06 11:15:59;;;;;;;;;16.33;14.00;;;;;17.30;49.29;101540.19;5053686;28;45520;-55
2023/12/06 11:18:26;;;;;;;;;16.00;14.00;;;;;17.30;50.46;101537.50;5045945;28;46618;-52
2023/12/06 11:20:52;;;;;;;;;16.33;15.33;;;;;17.32;50.31;101544.50;5052112;28;45391;-54